4MA4 weather

J K L Heliport
New Bedford, Massachusetts, United States

Public forecast

Using degrees Fahrenheit for public forecast. Weather courtesy of forecast.io.

METAR (pilot weather report)

Closest report is New Bedford Regional Airport, 4.1 nm (7.7 km) NE. Retrieved 2019/07/17 18:53 UTC (1 hour ago):

KEWB 171853Z 21010KT 10SM CLR 30/24 A2989 RMK AO2 SLP120 T03000239

TAF (pilot weather forecast)

Closest forecast is Theodore Francis Green State Airport, 19.4 nm (36.0 km) WNW. Retrieved 2019/07/17 18:45 UTC (1 hour ago):

TAF KPVD 171742Z 1718/1818 22009KT P6SM BKN060 FM172100 24009KT 4SM -SHRA VCTS OVC035CB FM180100 25005KT 6SM SHRA OVC060 FM180700 15003KT P6SM -SHRA OVC015 FM181200 07004KT 6SM SHRA BR OVC008 FM181700 05006KT 4SM SHRA BR OVC008